sensor_id;sensor_type;location;lat;lon;timestamp;P1;durP1;ratioP1;P2;durP2;ratioP2
44145;SDS011;29809;52.432;4.780;2022-09-09T00:04:34;1.50;;;0.90;;
44145;SDS011;29809;52.432;4.780;2022-09-09T00:09:46;5.10;;;1.80;;
44145;SDS011;29809;52.432;4.780;2022-09-09T00:12:23;2.28;;;1.20;;
44145;SDS011;29809;52.432;4.780;2022-09-09T00:15:02;3.40;;;1.60;;
44145;SDS011;29809;52.432;4.780;2022-09-09T00:17:43;3.45;;;1.40;;
44145;SDS011;29809;52.432;4.780;2022-09-09T00:20:14;5.75;;;1.40;;
44145;SDS011;29809;52.432;4.780;2022-09-09T00:22:43;2.20;;;1.30;;
44145;SDS011;29809;52.432;4.780;2022-09-09T00:25:12;1.92;;;1.20;;
44145;SDS011;29809;52.432;4.780;2022-09-09T00:27:44;2.10;;;1.48;;
44145;SDS011;29809;52.432;4.780;2022-09-09T00:30:17;3.65;;;1.52;;
44145;SDS011;29809;52.432;4.780;2022-09-09T00:32:45;3.53;;;1.88;;
44145;SDS011;29809;52.432;4.780;2022-09-09T00:37:43;4.20;;;1.80;;
44145;SDS011;29809;52.432;4.780;2022-09-09T00:40:22;3.92;;;2.45;;
44145;SDS011;29809;52.432;4.780;2022-09-09T00:42:47;5.07;;;1.70;;
44145;SDS011;29809;52.432;4.780;2022-09-09T00:45:34;3.85;;;2.22;;
44145;SDS011;29809;52.432;4.780;2022-09-09T00:48:04;4.75;;;2.55;;
44145;SDS011;29809;52.432;4.780;2022-09-09T00:51:17;3.05;;;2.15;;
44145;SDS011;29809;52.432;4.780;2022-09-09T00:53:36;3.08;;;2.05;;
44145;SDS011;29809;52.432;4.780;2022-09-09T00:56:08;5.55;;;3.13;;
44145;SDS011;29809;52.432;4.780;2022-09-09T00:58:35;4.22;;;2.70;;
44145;SDS011;29809;52.432;4.780;2022-09-09T01:01:10;5.82;;;3.10;;
44145;SDS011;29809;52.432;4.780;2022-09-09T01:08:50;5.90;;;3.08;;
44145;SDS011;29809;52.432;4.780;2022-09-09T01:11:24;6.38;;;3.28;;
44145;SDS011;29809;52.432;4.780;2022-09-09T01:16:34;7.30;;;4.00;;
44145;SDS011;29809;52.432;4.780;2022-09-09T01:19:00;9.30;;;3.85;;
44145;SDS011;29809;52.432;4.780;2022-09-09T01:22:10;5.85;;;3.38;;
44145;SDS011;29809;52.432;4.780;2022-09-09T01:25:05;4.57;;;3.05;;
44145;SDS011;29809;52.432;4.780;2022-09-09T01:27:05;5.75;;;3.95;;
44145;SDS011;29809;52.432;4.780;2022-09-09T01:29:31;5.47;;;3.70;;
44145;SDS011;29809;52.432;4.780;2022-09-09T01:32:00;6.25;;;3.85;;
44145;SDS011;29809;52.432;4.780;2022-09-09T01:34:27;5.03;;;3.63;;
44145;SDS011;29809;52.432;4.780;2022-09-09T01:37:03;5.10;;;3.30;;
44145;SDS011;29809;52.432;4.780;2022-09-09T01:39:30;8.00;;;3.72;;
44145;SDS011;29809;52.432;4.780;2022-09-09T01:41:56;4.38;;;3.33;;
44145;SDS011;29809;52.432;4.780;2022-09-09T01:44:21;4.72;;;3.13;;
44145;SDS011;29809;52.432;4.780;2022-09-09T01:46:47;6.18;;;3.75;;
44145;SDS011;29809;52.432;4.780;2022-09-09T01:49:12;5.60;;;3.28;;
44145;SDS011;29809;52.432;4.780;2022-09-09T01:51:38;7.28;;;3.67;;
44145;SDS011;29809;52.432;4.780;2022-09-09T01:54:04;4.78;;;4.03;;
44145;SDS011;29809;52.432;4.780;2022-09-09T02:04:25;5.85;;;4.32;;
44145;SDS011;29809;52.432;4.780;2022-09-09T02:06:52;5.68;;;3.88;;
44145;SDS011;29809;52.432;4.780;2022-09-09T02:09:21;4.53;;;3.78;;
44145;SDS011;29809;52.432;4.780;2022-09-09T02:11:47;8.38;;;4.00;;
44145;SDS011;29809;52.432;4.780;2022-09-09T02:14:16;4.18;;;3.75;;
44145;SDS011;29809;52.432;4.780;2022-09-09T02:16:55;5.00;;;3.65;;
44145;SDS011;29809;52.432;4.780;2022-09-09T02:19:25;5.82;;;4.00;;
44145;SDS011;29809;52.432;4.780;2022-09-09T02:21:53;6.22;;;4.30;;
44145;SDS011;29809;52.432;4.780;2022-09-09T02:24:19;7.97;;;4.25;;
44145;SDS011;29809;52.432;4.780;2022-09-09T02:26:45;6.05;;;4.30;;
44145;SDS011;29809;52.432;4.780;2022-09-09T02:29:14;6.90;;;4.07;;
44145;SDS011;29809;52.432;4.780;2022-09-09T02:31:40;5.32;;;4.55;;
44145;SDS011;29809;52.432;4.780;2022-09-09T02:34:06;7.45;;;4.57;;
44145;SDS011;29809;52.432;4.780;2022-09-09T02:36:35;7.75;;;4.60;;
44145;SDS011;29809;52.432;4.780;2022-09-09T02:39:02;6.35;;;4.75;;
44145;SDS011;29809;52.432;4.780;2022-09-09T02:41:32;5.05;;;4.30;;
44145;SDS011;29809;52.432;4.780;2022-09-09T02:43:57;6.40;;;4.43;;
44145;SDS011;29809;52.432;4.780;2022-09-09T02:46:45;8.05;;;4.45;;
44145;SDS011;29809;52.432;4.780;2022-09-09T02:49:18;6.00;;;4.35;;
44145;SDS011;29809;52.432;4.780;2022-09-09T02:54:32;6.40;;;4.07;;
44145;SDS011;29809;52.432;4.780;2022-09-09T02:57:02;6.18;;;3.97;;
44145;SDS011;29809;52.432;4.780;2022-09-09T02:59:28;7.22;;;4.47;;
44145;SDS011;29809;52.432;4.780;2022-09-09T03:01:55;4.60;;;3.70;;
44145;SDS011;29809;52.432;4.780;2022-09-09T03:04:20;5.25;;;4.05;;
44145;SDS011;29809;52.432;4.780;2022-09-09T03:06:46;6.20;;;3.55;;
44145;SDS011;29809;52.432;4.780;2022-09-09T03:09:11;4.20;;;3.80;;
44145;SDS011;29809;52.432;4.780;2022-09-09T03:11:36;3.90;;;3.60;;
44145;SDS011;29809;52.432;4.780;2022-09-09T03:14:02;6.03;;;4.35;;
44145;SDS011;29809;52.432;4.780;2022-09-09T03:16:27;3.92;;;3.55;;
44145;SDS011;29809;52.432;4.780;2022-09-09T03:18:52;5.00;;;3.60;;
44145;SDS011;29809;52.432;4.780;2022-09-09T03:21:18;6.05;;;4.35;;
44145;SDS011;29809;52.432;4.780;2022-09-09T03:23:43;5.30;;;3.25;;
44145;SDS011;29809;52.432;4.780;2022-09-09T03:26:09;6.10;;;4.35;;
44145;SDS011;29809;52.432;4.780;2022-09-09T03:28:35;5.63;;;3.45;;
44145;SDS011;29809;52.432;4.780;2022-09-09T03:31:00;6.47;;;3.60;;
44145;SDS011;29809;52.432;4.780;2022-09-09T03:33:26;3.83;;;2.95;;
44145;SDS011;29809;52.432;4.780;2022-09-09T03:35:51;7.05;;;3.25;;
44145;SDS011;29809;52.432;4.780;2022-09-09T03:38:16;5.43;;;3.60;;
44145;SDS011;29809;52.432;4.780;2022-09-09T03:40:49;9.23;;;3.88;;
44145;SDS011;29809;52.432;4.780;2022-09-09T03:43:15;4.75;;;3.25;;
44145;SDS011;29809;52.432;4.780;2022-09-09T03:45:44;3.92;;;2.70;;
44145;SDS011;29809;52.432;4.780;2022-09-09T03:48:11;4.63;;;2.97;;
44145;SDS011;29809;52.432;4.780;2022-09-09T03:50:36;4.43;;;2.85;;
44145;SDS011;29809;52.432;4.780;2022-09-09T03:53:02;2.92;;;2.63;;
44145;SDS011;29809;52.432;4.780;2022-09-09T03:55:27;5.85;;;3.38;;
44145;SDS011;29809;52.432;4.780;2022-09-09T03:57:52;5.40;;;3.00;;
44145;SDS011;29809;52.432;4.780;2022-09-09T04:00:17;6.18;;;2.60;;
44145;SDS011;29809;52.432;4.780;2022-09-09T04:02:43;3.60;;;3.20;;
44145;SDS011;29809;52.432;4.780;2022-09-09T04:05:08;4.50;;;2.78;;
44145;SDS011;29809;52.432;4.780;2022-09-09T04:07:34;6.50;;;3.40;;
44145;SDS011;29809;52.432;4.780;2022-09-09T04:09:59;7.88;;;3.90;;
44145;SDS011;29809;52.432;4.780;2022-09-09T04:12:24;5.10;;;3.40;;
44145;SDS011;29809;52.432;4.780;2022-09-09T04:14:50;4.55;;;3.53;;
44145;SDS011;29809;52.432;4.780;2022-09-09T04:17:15;5.32;;;3.42;;
44145;SDS011;29809;52.432;4.780;2022-09-09T04:19:40;4.60;;;3.97;;
44145;SDS011;29809;52.432;4.780;2022-09-09T04:22:07;7.70;;;3.63;;
44145;SDS011;29809;52.432;4.780;2022-09-09T04:24:32;5.57;;;3.67;;
44145;SDS011;29809;52.432;4.780;2022-09-09T04:26:57;6.43;;;4.18;;
44145;SDS011;29809;52.432;4.780;2022-09-09T04:29:23;7.65;;;3.50;;
44145;SDS011;29809;52.432;4.780;2022-09-09T04:31:48;7.63;;;3.50;;
44145;SDS011;29809;52.432;4.780;2022-09-09T04:34:13;8.45;;;3.97;;
44145;SDS011;29809;52.432;4.780;2022-09-09T04:36:38;6.80;;;3.65;;
44145;SDS011;29809;52.432;4.780;2022-09-09T04:39:05;9.70;;;3.42;;
44145;SDS011;29809;52.432;4.780;2022-09-09T04:41:30;8.15;;;3.38;;
44145;SDS011;29809;52.432;4.780;2022-09-09T04:43:56;7.15;;;4.18;;
44145;SDS011;29809;52.432;4.780;2022-09-09T04:46:21;4.95;;;3.60;;
44145;SDS011;29809;52.432;4.780;2022-09-09T04:48:48;8.10;;;3.35;;
44145;SDS011;29809;52.432;4.780;2022-09-09T04:51:14;8.98;;;3.88;;
44145;SDS011;29809;52.432;4.780;2022-09-09T04:53:39;8.30;;;4.00;;
44145;SDS011;29809;52.432;4.780;2022-09-09T04:58:30;7.85;;;3.22;;
44145;SDS011;29809;52.432;4.780;2022-09-09T05:01:06;5.72;;;3.45;;
44145;SDS011;29809;52.432;4.780;2022-09-09T05:03:31;4.45;;;2.90;;
44145;SDS011;29809;52.432;4.780;2022-09-09T05:06:30;7.95;;;3.05;;
44145;SDS011;29809;52.432;4.780;2022-09-09T05:08:48;198.55;;;44.30;;
44145;SDS011;29809;52.432;4.780;2022-09-09T05:13:42;318.95;;;87.97;;
44145;SDS011;29809;52.432;4.780;2022-09-09T05:16:08;180.80;;;56.60;;
44145;SDS011;29809;52.432;4.780;2022-09-09T05:18:36;121.50;;;37.13;;
44145;SDS011;29809;52.432;4.780;2022-09-09T05:21:01;89.93;;;29.88;;
44145;SDS011;29809;52.432;4.780;2022-09-09T05:23:27;60.65;;;23.05;;
44145;SDS011;29809;52.432;4.780;2022-09-09T05:25:56;44.60;;;18.42;;
44145;SDS011;29809;52.432;4.780;2022-09-09T05:28:22;38.83;;;15.32;;
44145;SDS011;29809;52.432;4.780;2022-09-09T05:30:54;33.60;;;12.07;;
44145;SDS011;29809;52.432;4.780;2022-09-09T05:33:20;21.58;;;8.68;;
44145;SDS011;29809;52.432;4.780;2022-09-09T05:35:46;25.02;;;8.07;;
44145;SDS011;29809;52.432;4.780;2022-09-09T05:38:11;18.02;;;7.38;;
44145;SDS011;29809;52.432;4.780;2022-09-09T05:40:36;18.52;;;6.15;;
44145;SDS011;29809;52.432;4.780;2022-09-09T05:43:01;22.48;;;6.88;;
44145;SDS011;29809;52.432;4.780;2022-09-09T05:45:27;17.02;;;5.15;;
44145;SDS011;29809;52.432;4.780;2022-09-09T05:47:52;14.80;;;4.72;;
44145;SDS011;29809;52.432;4.780;2022-09-09T05:50:20;13.05;;;4.57;;
44145;SDS011;29809;52.432;4.780;2022-09-09T05:52:45;12.80;;;4.43;;
44145;SDS011;29809;52.432;4.780;2022-09-09T05:55:10;10.02;;;3.88;;
44145;SDS011;29809;52.432;4.780;2022-09-09T05:57:35;8.30;;;3.15;;
44145;SDS011;29809;52.432;4.780;2022-09-09T06:00:01;12.18;;;3.50;;
44145;SDS011;29809;52.432;4.780;2022-09-09T06:02:26;9.30;;;2.95;;
44145;SDS011;29809;52.432;4.780;2022-09-09T06:04:51;7.88;;;3.30;;
44145;SDS011;29809;52.432;4.780;2022-09-09T06:07:17;8.38;;;3.00;;
44145;SDS011;29809;52.432;4.780;2022-09-09T06:09:42;8.18;;;3.00;;
44145;SDS011;29809;52.432;4.780;2022-09-09T06:12:08;6.70;;;2.58;;
44145;SDS011;29809;52.432;4.780;2022-09-09T06:14:33;8.68;;;3.00;;
44145;SDS011;29809;52.432;4.780;2022-09-09T06:16:59;4.90;;;2.10;;
44145;SDS011;29809;52.432;4.780;2022-09-09T06:19:24;6.93;;;2.63;;
44145;SDS011;29809;52.432;4.780;2022-09-09T06:21:51;4.97;;;2.58;;
44145;SDS011;29809;52.432;4.780;2022-09-09T06:24:16;8.10;;;2.50;;
44145;SDS011;29809;52.432;4.780;2022-09-09T06:26:44;6.60;;;2.42;;
44145;SDS011;29809;52.432;4.780;2022-09-09T06:29:10;7.70;;;2.67;;
44145;SDS011;29809;52.432;4.780;2022-09-09T06:31:36;6.93;;;2.50;;
44145;SDS011;29809;52.432;4.780;2022-09-09T06:34:02;6.40;;;2.15;;
44145;SDS011;29809;52.432;4.780;2022-09-09T06:36:29;8.80;;;2.25;;
44145;SDS011;29809;52.432;4.780;2022-09-09T06:38:55;12.73;;;2.20;;
44145;SDS011;29809;52.432;4.780;2022-09-09T06:41:21;4.50;;;1.90;;
44145;SDS011;29809;52.432;4.780;2022-09-09T06:43:47;5.90;;;1.90;;
44145;SDS011;29809;52.432;4.780;2022-09-09T06:46:16;4.43;;;1.92;;
44145;SDS011;29809;52.432;4.780;2022-09-09T06:48:42;5.30;;;2.60;;
44145;SDS011;29809;52.432;4.780;2022-09-09T06:53:35;5.65;;;2.38;;
44145;SDS011;29809;52.432;4.780;2022-09-09T06:56:01;5.85;;;2.28;;
44145;SDS011;29809;52.432;4.780;2022-09-09T06:58:27;5.60;;;1.90;;
44145;SDS011;29809;52.432;4.780;2022-09-09T07:01:00;8.60;;;2.70;;
44145;SDS011;29809;52.432;4.780;2022-09-09T07:03:26;6.82;;;2.25;;
44145;SDS011;29809;52.432;4.780;2022-09-09T07:05:54;6.22;;;2.38;;
44145;SDS011;29809;52.432;4.780;2022-09-09T07:08:21;4.88;;;2.08;;
44145;SDS011;29809;52.432;4.780;2022-09-09T07:10:46;9.98;;;2.88;;
44145;SDS011;29809;52.432;4.780;2022-09-09T07:13:12;5.75;;;2.25;;
44145;SDS011;29809;52.432;4.780;2022-09-09T07:15:40;6.38;;;1.98;;
44145;SDS011;29809;52.432;4.780;2022-09-09T07:18:06;10.93;;;3.05;;
44145;SDS011;29809;52.432;4.780;2022-09-09T07:20:31;7.95;;;2.35;;
44145;SDS011;29809;52.432;4.780;2022-09-09T07:22:56;6.93;;;2.47;;
44145;SDS011;29809;52.432;4.780;2022-09-09T07:25:23;7.97;;;2.90;;
44145;SDS011;29809;52.432;4.780;2022-09-09T07:27:48;6.55;;;2.40;;
44145;SDS011;29809;52.432;4.780;2022-09-09T07:30:14;6.70;;;2.72;;
44145;SDS011;29809;52.432;4.780;2022-09-09T07:32:39;7.53;;;3.22;;
44145;SDS011;29809;52.432;4.780;2022-09-09T07:35:05;5.95;;;2.50;;
44145;SDS011;29809;52.432;4.780;2022-09-09T07:37:30;6.75;;;2.47;;
44145;SDS011;29809;52.432;4.780;2022-09-09T07:39:55;7.82;;;2.90;;
44145;SDS011;29809;52.432;4.780;2022-09-09T07:42:20;7.53;;;2.88;;
44145;SDS011;29809;52.432;4.780;2022-09-09T07:44:46;7.28;;;2.55;;
44145;SDS011;29809;52.432;4.780;2022-09-09T07:47:11;5.60;;;2.55;;
44145;SDS011;29809;52.432;4.780;2022-09-09T07:49:36;5.90;;;2.50;;
44145;SDS011;29809;52.432;4.780;2022-09-09T07:52:01;6.90;;;2.78;;
44145;SDS011;29809;52.432;4.780;2022-09-09T07:54:28;9.27;;;3.20;;
44145;SDS011;29809;52.432;4.780;2022-09-09T07:56:53;9.38;;;2.63;;
44145;SDS011;29809;52.432;4.780;2022-09-09T07:59:18;5.97;;;2.10;;
44145;SDS011;29809;52.432;4.780;2022-09-09T08:01:48;5.30;;;2.50;;
44145;SDS011;29809;52.432;4.780;2022-09-09T08:04:14;6.47;;;2.42;;
44145;SDS011;29809;52.432;4.780;2022-09-09T08:06:41;11.18;;;2.30;;
44145;SDS011;29809;52.432;4.780;2022-09-09T08:09:07;6.20;;;2.38;;
44145;SDS011;29809;52.432;4.780;2022-09-09T08:11:33;4.05;;;1.92;;
44145;SDS011;29809;52.432;4.780;2022-09-09T08:13:59;5.40;;;2.45;;
44145;SDS011;29809;52.432;4.780;2022-09-09T08:16:34;6.93;;;2.22;;
44145;SDS011;29809;52.432;4.780;2022-09-09T08:19:01;8.05;;;2.13;;
44145;SDS011;29809;52.432;4.780;2022-09-09T08:21:28;6.72;;;2.85;;
44145;SDS011;29809;52.432;4.780;2022-09-09T08:23:55;5.97;;;2.42;;
44145;SDS011;29809;52.432;4.780;2022-09-09T08:26:21;6.38;;;2.38;;
44145;SDS011;29809;52.432;4.780;2022-09-09T08:28:48;8.75;;;2.42;;
44145;SDS011;29809;52.432;4.780;2022-09-09T08:31:16;6.53;;;2.28;;
44145;SDS011;29809;52.432;4.780;2022-09-09T08:33:42;8.35;;;2.70;;
44145;SDS011;29809;52.432;4.780;2022-09-09T08:36:11;8.60;;;2.70;;
44145;SDS011;29809;52.432;4.780;2022-09-09T08:38:37;10.35;;;2.58;;
44145;SDS011;29809;52.432;4.780;2022-09-09T08:43:39;5.93;;;2.28;;
44145;SDS011;29809;52.432;4.780;2022-09-09T08:46:09;7.45;;;2.20;;
44145;SDS011;29809;52.432;4.780;2022-09-09T08:48:48;6.82;;;2.60;;
44145;SDS011;29809;52.432;4.780;2022-09-09T08:51:17;7.63;;;2.83;;
44145;SDS011;29809;52.432;4.780;2022-09-09T08:53:46;6.35;;;2.30;;
44145;SDS011;29809;52.432;4.780;2022-09-09T08:56:13;4.47;;;2.20;;
44145;SDS011;29809;52.432;4.780;2022-09-09T08:58:43;6.93;;;2.33;;
44145;SDS011;29809;52.432;4.780;2022-09-09T09:09:01;5.22;;;2.45;;
44145;SDS011;29809;52.432;4.780;2022-09-09T09:11:33;6.53;;;2.70;;
44145;SDS011;29809;52.432;4.780;2022-09-09T09:14:03;6.63;;;2.15;;
44145;SDS011;29809;52.432;4.780;2022-09-09T09:16:32;5.82;;;2.88;;
44145;SDS011;29809;52.432;4.780;2022-09-09T09:18:58;4.82;;;2.03;;
44145;SDS011;29809;52.432;4.780;2022-09-09T09:21:40;9.25;;;2.40;;
44145;SDS011;29809;52.432;4.780;2022-09-09T09:24:13;9.15;;;2.65;;
44145;SDS011;29809;52.432;4.780;2022-09-09T09:26:41;6.93;;;2.40;;
44145;SDS011;29809;52.432;4.780;2022-09-09T09:29:17;4.45;;;2.15;;
44145;SDS011;29809;52.432;4.780;2022-09-09T09:31:45;7.88;;;2.88;;
44145;SDS011;29809;52.432;4.780;2022-09-09T09:34:13;11.77;;;2.78;;
44145;SDS011;29809;52.432;4.780;2022-09-09T09:36:41;6.40;;;2.15;;
44145;SDS011;29809;52.432;4.780;2022-09-09T09:39:09;5.50;;;2.50;;
44145;SDS011;29809;52.432;4.780;2022-09-09T09:41:39;7.57;;;2.53;;
44145;SDS011;29809;52.432;4.780;2022-09-09T09:44:05;6.18;;;2.28;;
44145;SDS011;29809;52.432;4.780;2022-09-09T09:46:32;6.05;;;2.10;;
44145;SDS011;29809;52.432;4.780;2022-09-09T09:51:22;6.45;;;2.33;;
44145;SDS011;29809;52.432;4.780;2022-09-09T09:53:48;5.43;;;2.38;;
44145;SDS011;29809;52.432;4.780;2022-09-09T09:56:14;5.53;;;2.47;;
44145;SDS011;29809;52.432;4.780;2022-09-09T10:01:24;11.07;;;2.95;;
44145;SDS011;29809;52.432;4.780;2022-09-09T10:04:00;4.65;;;1.88;;
44145;SDS011;29809;52.432;4.780;2022-09-09T10:06:33;6.15;;;2.67;;
44145;SDS011;29809;52.432;4.780;2022-09-09T10:08:59;5.38;;;2.55;;
44145;SDS011;29809;52.432;4.780;2022-09-09T10:16:34;6.28;;;2.10;;
44145;SDS011;29809;52.432;4.780;2022-09-09T10:19:15;4.05;;;2.05;;
44145;SDS011;29809;52.432;4.780;2022-09-09T10:21:51;6.38;;;1.67;;
44145;SDS011;29809;52.432;4.780;2022-09-09T10:37:41;7.28;;;2.10;;
44145;SDS011;29809;52.432;4.780;2022-09-09T10:39:55;7.47;;;1.98;;
44145;SDS011;29809;52.432;4.780;2022-09-09T10:42:27;6.28;;;2.53;;
44145;SDS011;29809;52.432;4.780;2022-09-09T10:47:30;6.78;;;2.92;;
44145;SDS011;29809;52.432;4.780;2022-09-09T10:52:50;5.93;;;1.90;;
44145;SDS011;29809;52.432;4.780;2022-09-09T11:00:03;6.25;;;2.20;;
44145;SDS011;29809;52.432;4.780;2022-09-09T11:02:30;9.40;;;2.33;;
44145;SDS011;29809;52.432;4.780;2022-09-09T11:05:08;8.68;;;2.22;;
44145;SDS011;29809;52.432;4.780;2022-09-09T11:07:39;4.70;;;1.90;;
44145;SDS011;29809;52.432;4.780;2022-09-09T11:10:17;5.78;;;1.85;;
44145;SDS011;29809;52.432;4.780;2022-09-09T11:12:44;6.32;;;2.00;;
44145;SDS011;29809;52.432;4.780;2022-09-09T11:15:17;6.10;;;1.83;;
44145;SDS011;29809;52.432;4.780;2022-09-09T11:17:53;8.80;;;2.25;;
44145;SDS011;29809;52.432;4.780;2022-09-09T11:20:21;7.03;;;2.38;;
44145;SDS011;29809;52.432;4.780;2022-09-09T11:23:12;6.20;;;2.33;;
44145;SDS011;29809;52.432;4.780;2022-09-09T11:25:36;5.03;;;1.63;;
44145;SDS011;29809;52.432;4.780;2022-09-09T11:28:41;5.18;;;1.85;;
44145;SDS011;29809;52.432;4.780;2022-09-09T11:33:34;6.82;;;1.95;;
44145;SDS011;29809;52.432;4.780;2022-09-09T11:38:47;5.28;;;1.60;;
44145;SDS011;29809;52.432;4.780;2022-09-09T11:41:13;6.55;;;1.90;;
44145;SDS011;29809;52.432;4.780;2022-09-09T11:46:07;5.90;;;1.67;;
44145;SDS011;29809;52.432;4.780;2022-09-09T11:48:37;6.22;;;2.28;;
44145;SDS011;29809;52.432;4.780;2022-09-09T11:51:10;3.60;;;1.58;;
44145;SDS011;29809;52.432;4.780;2022-09-09T11:53:46;5.70;;;1.63;;
44145;SDS011;29809;52.432;4.780;2022-09-09T11:56:13;2.17;;;1.50;;
44145;SDS011;29809;52.432;4.780;2022-09-09T11:58:59;6.18;;;1.45;;
44145;SDS011;29809;52.432;4.780;2022-09-09T12:01:41;9.07;;;1.88;;
44145;SDS011;29809;52.432;4.780;2022-09-09T12:14:43;8.65;;;1.52;;
44145;SDS011;29809;52.432;4.780;2022-09-09T12:17:21;10.30;;;3.10;;
44145;SDS011;29809;52.432;4.780;2022-09-09T12:19:47;5.88;;;2.35;;
44145;SDS011;29809;52.432;4.780;2022-09-09T12:25:06;2.50;;;1.25;;
44145;SDS011;29809;52.432;4.780;2022-09-09T12:27:27;7.78;;;1.90;;
44145;SDS011;29809;52.432;4.780;2022-09-09T12:29:59;5.10;;;1.55;;
44145;SDS011;29809;52.432;4.780;2022-09-09T12:32:27;4.07;;;1.55;;
44145;SDS011;29809;52.432;4.780;2022-09-09T12:35:00;4.05;;;1.77;;
44145;SDS011;29809;52.432;4.780;2022-09-09T12:39:56;5.47;;;1.73;;
44145;SDS011;29809;52.432;4.780;2022-09-09T12:42:22;2.70;;;1.10;;
44145;SDS011;29809;52.432;4.780;2022-09-09T12:44:51;6.95;;;1.60;;
44145;SDS011;29809;52.432;4.780;2022-09-09T12:47:16;3.42;;;1.35;;
44145;SDS011;29809;52.432;4.780;2022-09-09T12:49:43;3.72;;;1.30;;
44145;SDS011;29809;52.432;4.780;2022-09-09T12:52:30;5.57;;;1.90;;
44145;SDS011;29809;52.432;4.780;2022-09-09T12:54:55;5.13;;;1.58;;
44145;SDS011;29809;52.432;4.780;2022-09-09T12:57:21;4.63;;;1.63;;
44145;SDS011;29809;52.432;4.780;2022-09-09T12:59:48;5.38;;;2.40;;
44145;SDS011;29809;52.432;4.780;2022-09-09T13:02:23;4.68;;;1.80;;
44145;SDS011;29809;52.432;4.780;2022-09-09T13:04:49;2.97;;;1.63;;
44145;SDS011;29809;52.432;4.780;2022-09-09T13:07:16;6.10;;;1.58;;
44145;SDS011;29809;52.432;4.780;2022-09-09T13:09:41;6.35;;;1.40;;
44145;SDS011;29809;52.432;4.780;2022-09-09T13:12:09;5.25;;;1.48;;
44145;SDS011;29809;52.432;4.780;2022-09-09T13:14:37;2.75;;;1.45;;
44145;SDS011;29809;52.432;4.780;2022-09-09T13:17:04;4.45;;;1.42;;
44145;SDS011;29809;52.432;4.780;2022-09-09T13:19:31;3.03;;;1.42;;
44145;SDS011;29809;52.432;4.780;2022-09-09T13:21:58;5.35;;;1.75;;
44145;SDS011;29809;52.432;4.780;2022-09-09T13:27:40;3.20;;;1.13;;
44145;SDS011;29809;52.432;4.780;2022-09-09T13:29:39;1.80;;;1.00;;
44145;SDS011;29809;52.432;4.780;2022-09-09T13:32:06;2.80;;;1.55;;
44145;SDS011;29809;52.432;4.780;2022-09-09T13:34:37;3.10;;;1.33;;
44145;SDS011;29809;52.432;4.780;2022-09-09T13:37:03;3.38;;;1.35;;
44145;SDS011;29809;52.432;4.780;2022-09-09T13:39:30;2.83;;;1.20;;
44145;SDS011;29809;52.432;4.780;2022-09-09T13:41:57;2.63;;;1.42;;
44145;SDS011;29809;52.432;4.780;2022-09-09T13:44:33;4.57;;;1.50;;
44145;SDS011;29809;52.432;4.780;2022-09-09T13:47:00;4.50;;;1.25;;
44145;SDS011;29809;52.432;4.780;2022-09-09T13:49:27;3.00;;;1.50;;
44145;SDS011;29809;52.432;4.780;2022-09-09T13:52:02;3.50;;;1.98;;
44145;SDS011;29809;52.432;4.780;2022-09-09T13:54:27;2.95;;;1.50;;
44145;SDS011;29809;52.432;4.780;2022-09-09T13:56:53;3.30;;;1.67;;
44145;SDS011;29809;52.432;4.780;2022-09-09T13:59:19;4.03;;;1.30;;
44145;SDS011;29809;52.432;4.780;2022-09-09T14:01:45;1.77;;;1.40;;
44145;SDS011;29809;52.432;4.780;2022-09-09T14:04:10;2.60;;;1.27;;
44145;SDS011;29809;52.432;4.780;2022-09-09T14:06:36;3.90;;;1.67;;
44145;SDS011;29809;52.432;4.780;2022-09-09T14:09:03;4.32;;;1.40;;
44145;SDS011;29809;52.432;4.780;2022-09-09T14:11:28;3.45;;;1.00;;
44145;SDS011;29809;52.432;4.780;2022-09-09T14:13:53;2.35;;;1.40;;
44145;SDS011;29809;52.432;4.780;2022-09-09T14:16:19;1.90;;;1.05;;
44145;SDS011;29809;52.432;4.780;2022-09-09T14:18:45;2.28;;;1.00;;
44145;SDS011;29809;52.432;4.780;2022-09-09T14:21:11;3.72;;;1.13;;
44145;SDS011;29809;52.432;4.780;2022-09-09T14:23:36;3.72;;;1.48;;
44145;SDS011;29809;52.432;4.780;2022-09-09T14:26:03;4.95;;;2.30;;
44145;SDS011;29809;52.432;4.780;2022-09-09T14:28:28;4.75;;;2.13;;
44145;SDS011;29809;52.432;4.780;2022-09-09T14:30:54;3.22;;;2.10;;
44145;SDS011;29809;52.432;4.780;2022-09-09T14:33:19;3.63;;;2.30;;
44145;SDS011;29809;52.432;4.780;2022-09-09T14:35:44;5.25;;;2.30;;
44145;SDS011;29809;52.432;4.780;2022-09-09T14:38:09;5.57;;;2.83;;
44145;SDS011;29809;52.432;4.780;2022-09-09T14:40:35;3.10;;;1.67;;
44145;SDS011;29809;52.432;4.780;2022-09-09T14:43:01;5.97;;;1.80;;
44145;SDS011;29809;52.432;4.780;2022-09-09T14:45:27;3.05;;;1.50;;
44145;SDS011;29809;52.432;4.780;2022-09-09T14:47:53;2.83;;;1.50;;
44145;SDS011;29809;52.432;4.780;2022-09-09T14:50:18;4.00;;;1.70;;
44145;SDS011;29809;52.432;4.780;2022-09-09T14:52:44;3.28;;;1.38;;
44145;SDS011;29809;52.432;4.780;2022-09-09T14:55:09;3.17;;;1.40;;
44145;SDS011;29809;52.432;4.780;2022-09-09T14:57:34;4.03;;;1.48;;
44145;SDS011;29809;52.432;4.780;2022-09-09T15:00:01;5.50;;;1.60;;
44145;SDS011;29809;52.432;4.780;2022-09-09T15:02:26;3.85;;;1.20;;
44145;SDS011;29809;52.432;4.780;2022-09-09T15:04:52;3.60;;;1.42;;
44145;SDS011;29809;52.432;4.780;2022-09-09T15:07:18;4.78;;;1.60;;
44145;SDS011;29809;52.432;4.780;2022-09-09T15:09:44;1.60;;;1.08;;
44145;SDS011;29809;52.432;4.780;2022-09-09T15:12:09;2.60;;;1.25;;
44145;SDS011;29809;52.432;4.780;2022-09-09T15:14:35;4.07;;;1.50;;
44145;SDS011;29809;52.432;4.780;2022-09-09T15:17:00;4.85;;;1.52;;
44145;SDS011;29809;52.432;4.780;2022-09-09T15:19:26;3.60;;;1.45;;
44145;SDS011;29809;52.432;4.780;2022-09-09T15:21:51;4.00;;;1.42;;
44145;SDS011;29809;52.432;4.780;2022-09-09T15:24:16;2.88;;;1.27;;
44145;SDS011;29809;52.432;4.780;2022-09-09T15:26:45;3.05;;;1.17;;
44145;SDS011;29809;52.432;4.780;2022-09-09T15:29:10;4.07;;;1.40;;
44145;SDS011;29809;52.432;4.780;2022-09-09T15:31:35;1.77;;;1.05;;
44145;SDS011;29809;52.432;4.780;2022-09-09T15:34:01;2.67;;;1.25;;
44145;SDS011;29809;52.432;4.780;2022-09-09T15:36:31;3.15;;;1.10;;
44145;SDS011;29809;52.432;4.780;2022-09-09T15:38:57;5.53;;;1.70;;
44145;SDS011;29809;52.432;4.780;2022-09-09T15:41:22;4.70;;;1.70;;
44145;SDS011;29809;52.432;4.780;2022-09-09T15:43:49;4.82;;;1.23;;
44145;SDS011;29809;52.432;4.780;2022-09-09T15:46:34;2.15;;;1.13;;
44145;SDS011;29809;52.432;4.780;2022-09-09T15:49:07;4.22;;;1.38;;
44145;SDS011;29809;52.432;4.780;2022-09-09T15:51:36;4.57;;;1.40;;
44145;SDS011;29809;52.432;4.780;2022-09-09T15:54:05;4.85;;;1.58;;
44145;SDS011;29809;52.432;4.780;2022-09-09T15:56:30;4.13;;;1.85;;
44145;SDS011;29809;52.432;4.780;2022-09-09T15:58:57;5.22;;;2.30;;
44145;SDS011;29809;52.432;4.780;2022-09-09T16:01:23;5.10;;;2.08;;
44145;SDS011;29809;52.432;4.780;2022-09-09T16:03:49;5.75;;;2.20;;
44145;SDS011;29809;52.432;4.780;2022-09-09T16:06:16;4.20;;;2.40;;
44145;SDS011;29809;52.432;4.780;2022-09-09T16:08:43;4.95;;;2.28;;
44145;SDS011;29809;52.432;4.780;2022-09-09T16:11:13;4.75;;;3.00;;
44145;SDS011;29809;52.432;4.780;2022-09-09T16:13:40;5.03;;;3.38;;
44145;SDS011;29809;52.432;4.780;2022-09-09T16:16:07;5.32;;;3.75;;
44145;SDS011;29809;52.432;4.780;2022-09-09T16:18:39;4.20;;;3.03;;
44145;SDS011;29809;52.432;4.780;2022-09-09T16:21:05;5.25;;;2.95;;
44145;SDS011;29809;52.432;4.780;2022-09-09T16:23:34;4.43;;;2.58;;
44145;SDS011;29809;52.432;4.780;2022-09-09T16:25:59;4.68;;;2.60;;
44145;SDS011;29809;52.432;4.780;2022-09-09T16:28:25;5.07;;;3.25;;
44145;SDS011;29809;52.432;4.780;2022-09-09T16:30:50;7.90;;;2.60;;
44145;SDS011;29809;52.432;4.780;2022-09-09T16:33:16;5.72;;;3.33;;
44145;SDS011;29809;52.432;4.780;2022-09-09T16:35:41;6.57;;;3.05;;